Esenboğa International Airport

LTAC · 安卡拉省, 土耳其

罗盘
风向 的 风向 040° Esenboğa International Airport 3R/21L
风: 7 kt, 3 beaufort

7 kt

改变
0 ft 2.000 4.000 6.000 8.000 10.000
Cloud Cloud Cloud Cloud
SCT 4.000
Cloud Cloud Cloud Cloud Cloud Cloud
BKN 10.000
METAR LTAC 032150Z 04007KT 9999 SCT040 BKN100 05/02 Q1014 NOSIG

METAR Esenboğa International Airport - LTAC/ESB

Esenboğa International Airport是,土耳其中的大型机场。 该机场位于纬度40,12890和经度32,99580。 该机场有2条跑道: 3R/21L 和 3L/21R. 本场的ICAO机场代码为LTAC。 该机场的IATA代码为ESB。 机场在Ankara FIR中。

该航空气象观测是针对Esenboğa International Airport在2024年3月4日 00:50, 当地时间进行的。

机场观察

风向为040°,速度为7 kt。

可见度为10 km 或者更多。

有疏云,零星散落的云朵在4.000 ft的高度 和 碎云在10.000 ft的高度。 破损或更高的上限为10.000 ft。

温度为5 °C,阵风为1 °C。 露点为2 °C,相对湿度为81%。 海平面上的气压为1014 hPa (QNH)。

白天

今天,太阳从07:17升起,在18:42降落。 这适用于Esenboğa International Airport,世界夏令时可能有所不同。 当地时间与世界标准时间之间的时差为+3 小时。 当前,没有夏令时有效。

公司介绍

在这个机场,你可以找到跳伞中心。 本场上唯一已知的公司是THK Turkkusu。

体会

到Vliegles.nl去找飞行课程,跳伞和其他飞行体验。 浏览页面,了解Esenboğa International Airport附近所有可用的活动。 你也可以使用搜索功能来寻找你所在地附近的特定飞行课程、跳伞或其他飞行体验。

跑道

Id 标题 侧风 逆风 侧风 %
3R/21L 036°-216° 7 kt 7 %
3L/21R 036°-216° 7 kt 7 %

逆风成分最大的方向会被突出显示,并用于横风计算。 这并不一定意味着这个方向在使用。

乌云

4.000 ft SCT 疏云,零星散落的云朵
10.000 ft BKN 碎云

温度 & 天气

温度 5 °C
露点 2 °C
相对湿度 81%
风寒 1 °C
Kp-index 4 (0-9)

白天

日出
07:17 (5:46)
中午
12:59
日落
18:42

小工具

你想在你的网站上有一个关于Esenboğa International Airport的当前航空天气(METAR)的小部件吗?

显示HTML代码
?>